createdAt,value
2022-08-10T00:00:39.571Z,0.40
2022-08-10T00:03:07.853Z,0.35
2022-08-10T00:05:43.850Z,0.30
2022-08-10T00:08:22.555Z,0.30
2022-08-10T00:10:55.837Z,0.40
2022-08-10T00:13:24.236Z,0.30
2022-08-10T00:15:54.906Z,0.30
2022-08-10T00:18:31.428Z,0.32
2022-08-10T00:21:07.625Z,0.30
2022-08-10T00:23:35.470Z,0.40
2022-08-10T00:26:03.048Z,0.30
2022-08-10T00:28:33.142Z,0.40
2022-08-10T00:31:00.366Z,0.32
2022-08-10T00:33:30.338Z,0.30
2022-08-10T00:36:00.270Z,0.30
2022-08-10T00:38:29.544Z,0.30
2022-08-10T00:40:56.570Z,0.30
2022-08-10T00:43:24.205Z,0.40
2022-08-10T00:45:59.547Z,0.30
2022-08-10T00:48:31.517Z,0.50
2022-08-10T00:51:02.017Z,0.20
2022-08-10T00:53:29.672Z,0.28
2022-08-10T00:57:17.110Z,0.40
2022-08-10T00:58:44.977Z,0.40
2022-08-10T01:02:09.868Z,0.30
2022-08-10T01:04:45.168Z,0.40
2022-08-10T01:07:15.691Z,0.30
2022-08-10T01:10:03.762Z,0.30
2022-08-10T01:13:04.825Z,0.20
2022-08-10T01:15:43.169Z,0.30
2022-08-10T01:18:23.516Z,0.20
2022-08-10T01:21:08.620Z,0.20
2022-08-10T01:23:47.835Z,0.30
2022-08-10T01:26:56.466Z,0.35
2022-08-10T01:30:01.499Z,0.30
2022-08-10T01:32:56.555Z,0.40
2022-08-10T01:35:31.871Z,0.47
2022-08-10T01:38:14.311Z,0.32
2022-08-10T01:43:31.750Z,0.30
2022-08-10T01:46:02.728Z,0.32
2022-08-10T01:48:38.638Z,0.30
2022-08-10T01:51:22.160Z,0.40
2022-08-10T01:53:55.077Z,0.30
2022-08-10T01:56:25.256Z,0.40
2022-08-10T01:59:22.186Z,0.65
2022-08-10T02:01:53.162Z,0.55
2022-08-10T02:04:20.977Z,0.38
2022-08-10T02:06:51.023Z,0.50
2022-08-10T02:09:22.279Z,0.40
2022-08-10T02:12:05.500Z,0.40
2022-08-10T02:14:39.267Z,0.50
2022-08-10T02:17:59.158Z,0.30
2022-08-10T02:20:04.715Z,0.50
2022-08-10T02:22:37.010Z,0.40
2022-08-10T02:25:08.921Z,0.50
2022-08-10T02:27:36.443Z,0.50
2022-08-10T02:30:05.429Z,0.40
2022-08-10T02:32:36.251Z,0.50
2022-08-10T02:35:08.542Z,0.40
2022-08-10T02:37:46.483Z,0.40
2022-08-10T02:42:18.242Z,0.50
2022-08-10T02:45:19.601Z,0.50
2022-08-10T02:46:05.255Z,0.50
2022-08-10T02:48:41.858Z,0.40
2022-08-10T02:51:18.573Z,0.68
2022-08-10T02:53:56.718Z,0.63
2022-08-10T02:56:41.915Z,0.70
2022-08-10T02:59:25.653Z,0.70
2022-08-10T03:01:56.066Z,0.50
2022-08-10T03:04:57.020Z,0.88
2022-08-10T03:07:44.014Z,0.65
2022-08-10T03:10:13.167Z,0.50
2022-08-10T03:12:43.301Z,0.65
2022-08-10T03:15:15.599Z,0.55
2022-08-10T03:17:58.016Z,0.70
2022-08-10T03:20:37.993Z,0.68
2022-08-10T03:23:16.041Z,0.55
2022-08-10T03:25:53.237Z,0.40
2022-08-10T03:28:29.329Z,0.60
2022-08-10T03:30:59.300Z,0.60
2022-08-10T03:33:29.621Z,0.60
2022-08-10T03:36:40.677Z,0.68
2022-08-10T03:38:48.698Z,0.50
2022-08-10T03:41:21.140Z,0.60
2022-08-10T03:43:50.186Z,0.60
2022-08-10T03:46:23.596Z,0.60
2022-08-10T03:48:53.869Z,0.60
2022-08-10T03:51:22.672Z,1.00
2022-08-10T03:54:03.335Z,0.70
2022-08-10T03:56:35.012Z,0.88
2022-08-10T03:59:02.434Z,0.93
2022-08-10T04:02:43.269Z,0.70
2022-08-10T04:04:25.041Z,0.80
2022-08-10T04:09:25.161Z,1.00
2022-08-10T04:12:10.541Z,0.85
2022-08-10T04:14:49.713Z,0.82
2022-08-10T04:18:03.107Z,0.77
2022-08-10T04:20:34.324Z,0.93
2022-08-10T04:23:06.471Z,0.80
2022-08-10T04:25:34.717Z,1.23
2022-08-10T04:28:03.299Z,1.13
2022-08-10T04:30:32.393Z,0.90
2022-08-10T04:33:02.258Z,1.00
2022-08-10T04:35:30.142Z,0.80
2022-08-10T04:37:59.307Z,0.98
2022-08-10T04:40:30.152Z,1.10
2022-08-10T04:43:11.636Z,0.88
2022-08-10T04:45:47.870Z,1.00
2022-08-10T04:48:42.243Z,1.25
2022-08-10T04:51:10.713Z,1.00
2022-08-10T04:54:04.308Z,0.93
2022-08-10T04:56:31.771Z,1.30
2022-08-10T04:59:00.446Z,1.25
2022-08-10T05:02:09.943Z,1.23
2022-08-10T05:04:37.816Z,1.33
2022-08-10T05:07:02.069Z,1.38
2022-08-10T05:09:31.486Z,1.42
2022-08-10T05:11:58.388Z,1.33
2022-08-10T05:14:25.263Z,1.15
2022-08-10T05:16:52.167Z,1.20
2022-08-10T05:20:01.511Z,1.20
2022-08-10T05:22:09.336Z,1.58
2022-08-10T05:24:36.265Z,1.10
2022-08-10T05:27:10.105Z,1.20
2022-08-10T05:29:37.853Z,1.70
2022-08-10T05:32:05.246Z,1.20
2022-08-10T05:34:32.169Z,1.20
2022-08-10T05:37:00.012Z,1.70
2022-08-10T05:39:30.333Z,1.25
2022-08-10T05:42:04.296Z,1.23
2022-08-10T05:44:31.514Z,1.20
2022-08-10T05:46:58.486Z,1.42
2022-08-10T05:49:25.598Z,1.15
2022-08-10T05:51:52.639Z,1.50
2022-08-10T05:54:21.290Z,1.75
2022-08-10T05:56:55.442Z,1.10
2022-08-10T06:00:10.978Z,1.27
2022-08-10T06:02:45.751Z,1.10
2022-08-10T06:05:16.328Z,1.15
2022-08-10T06:07:51.903Z,1.35
2022-08-10T06:10:30.999Z,1.30
2022-08-10T06:13:27.135Z,1.38
2022-08-10T06:16:06.099Z,0.82
2022-08-10T06:18:33.643Z,0.90
2022-08-10T06:21:01.026Z,0.77
2022-08-10T06:23:34.235Z,0.98
2022-08-10T06:26:10.628Z,0.90
2022-08-10T06:29:04.058Z,1.13
2022-08-10T06:31:48.520Z,0.75
2022-08-10T06:34:21.044Z,0.80
2022-08-10T06:36:49.133Z,0.80
2022-08-10T06:39:32.861Z,0.60
2022-08-10T06:42:19.247Z,0.77
2022-08-10T06:45:04.809Z,0.60
2022-08-10T06:47:54.113Z,0.52
2022-08-10T06:50:44.500Z,0.77
2022-08-10T06:53:53.805Z,0.60
2022-08-10T06:56:16.517Z,0.80
2022-08-10T06:59:26.056Z,0.80
2022-08-10T07:02:14.484Z,0.70
2022-08-10T07:04:51.943Z,0.70
2022-08-10T07:07:24.647Z,0.45
2022-08-10T07:09:52.904Z,0.50
2022-08-10T07:12:22.095Z,0.52
2022-08-10T07:14:53.592Z,0.50
2022-08-10T07:17:24.057Z,0.55
2022-08-10T07:19:55.613Z,0.52
2022-08-10T07:23:01.437Z,0.60
2022-08-10T07:25:25.194Z,0.32
2022-08-10T07:27:58.648Z,0.30
2022-08-10T07:30:30.145Z,0.50
2022-08-10T07:32:58.686Z,0.50
2022-08-10T07:35:29.824Z,0.40
2022-08-10T07:38:05.581Z,0.50
2022-08-10T07:40:34.654Z,0.40
2022-08-10T07:43:03.024Z,0.40
2022-08-10T07:45:36.055Z,0.50
2022-08-10T07:48:13.811Z,0.30
2022-08-10T07:50:42.578Z,0.52
2022-08-10T07:53:15.817Z,0.40
2022-08-10T07:56:05.641Z,0.50
2022-08-10T07:58:51.415Z,0.40
2022-08-10T08:01:23.344Z,0.32
2022-08-10T08:04:11.234Z,0.32
2022-08-10T08:06:40.805Z,0.40
2022-08-10T08:09:08.476Z,0.50
2022-08-10T08:11:37.160Z,0.45
2022-08-10T08:14:07.575Z,0.40
2022-08-10T08:16:37.329Z,0.50
2022-08-10T08:24:05.336Z,0.30
2022-08-10T08:24:42.579Z,0.40
2022-08-10T08:27:15.222Z,0.50
2022-08-10T08:29:44.873Z,0.40
2022-08-10T08:32:15.852Z,0.40
2022-08-10T08:34:44.512Z,0.40
2022-08-10T08:38:32.297Z,0.40
2022-08-10T08:40:04.507Z,0.50
2022-08-10T08:43:01.597Z,0.30
2022-08-10T08:46:00.654Z,0.35
2022-08-10T08:48:50.417Z,0.30
2022-08-10T08:52:17.442Z,0.28
2022-08-10T08:55:02.850Z,0.50
2022-08-10T08:57:49.560Z,0.60
2022-08-10T09:00:51.222Z,0.43
2022-08-10T09:03:36.082Z,0.55
2022-08-10T09:06:20.459Z,0.60
2022-08-10T09:09:09.393Z,0.40
2022-08-10T09:12:17.625Z,0.50
2022-08-10T09:15:05.112Z,0.43
2022-08-10T09:17:48.707Z,0.40
2022-08-10T09:20:23.648Z,0.50
2022-08-10T09:23:13.573Z,0.70
2022-08-10T09:25:48.641Z,0.40
2022-08-10T09:28:26.786Z,0.40
2022-08-10T09:31:23.192Z,0.60
2022-08-10T09:36:20.306Z,0.52
2022-08-10T09:37:39.991Z,0.52
2022-08-10T09:41:01.056Z,0.40
2022-08-10T09:44:13.980Z,0.57
2022-08-10T09:47:05.118Z,0.47
2022-08-10T09:50:05.044Z,0.30
2022-08-10T09:53:06.865Z,0.50
2022-08-10T09:56:17.633Z,0.40
2022-08-10T09:59:26.998Z,0.45
2022-08-10T10:02:06.175Z,0.38
2022-08-10T10:05:14.781Z,0.40
2022-08-10T10:07:53.787Z,0.47
2022-08-10T10:10:26.719Z,0.30
2022-08-10T10:13:17.888Z,0.40
2022-08-10T10:16:09.861Z,0.50
2022-08-10T10:18:49.580Z,0.40
2022-08-10T10:21:54.258Z,0.40
2022-08-10T10:27:01.864Z,0.30
2022-08-10T10:29:56.484Z,0.20
2022-08-10T10:32:45.789Z,0.20
2022-08-10T10:35:19.787Z,0.30
2022-08-10T10:38:01.319Z,0.20
2022-08-10T10:40:54.821Z,0.20
2022-08-10T10:43:44.904Z,0.30
2022-08-10T10:46:41.438Z,0.22
2022-08-10T10:49:22.494Z,0.20
2022-08-10T10:52:14.174Z,0.20
2022-08-10T10:55:07.301Z,0.35
2022-08-10T10:57:59.864Z,0.30
2022-08-10T11:00:39.440Z,0.30
2022-08-10T11:03:47.029Z,0.30
2022-08-10T11:06:40.289Z,0.45
2022-08-10T11:10:08.695Z,0.30
2022-08-10T11:14:23.396Z,0.35
2022-08-10T11:15:59.890Z,0.30
2022-08-10T11:18:41.372Z,0.30
2022-08-10T11:21:51.054Z,0.30
2022-08-10T11:24:47.038Z,0.30
2022-08-10T11:27:29.017Z,0.35
2022-08-10T11:30:06.793Z,0.30
2022-08-10T11:33:01.645Z,0.40
2022-08-10T11:35:35.306Z,0.20
2022-08-10T11:38:52.253Z,0.30
2022-08-10T11:42:07.949Z,0.22
2022-08-10T11:44:37.194Z,0.20
2022-08-10T11:47:15.100Z,0.40
2022-08-10T11:50:04.103Z,0.22
2022-08-10T11:53:08.865Z,0.28
2022-08-10T11:55:36.650Z,0.20
2022-08-10T11:58:31.463Z,0.30
2022-08-10T12:01:05.279Z,0.20
2022-08-10T12:03:39.027Z,0.20
2022-08-10T12:06:21.546Z,0.20
2022-08-10T12:10:08.526Z,0.40
2022-08-10T12:11:53.776Z,0.20
2022-08-10T12:14:29.025Z,0.30
2022-08-10T12:17:08.055Z,0.20
2022-08-10T12:20:01.765Z,0.32
2022-08-10T12:22:51.953Z,0.22
2022-08-10T12:25:55.783Z,0.20
2022-08-10T12:28:50.251Z,0.30
2022-08-10T12:31:33.272Z,0.30
2022-08-10T12:34:25.330Z,0.20
2022-08-10T12:37:06.759Z,0.28
2022-08-10T12:39:46.542Z,0.30
2022-08-10T12:43:00.595Z,0.20
2022-08-10T12:45:34.659Z,0.30
2022-08-10T12:48:33.898Z,0.25
2022-08-10T12:51:09.809Z,0.30
2022-08-10T12:54:12.598Z,0.50
2022-08-10T12:56:53.321Z,0.20
2022-08-10T12:59:24.873Z,0.20
2022-08-10T13:02:06.950Z,0.20
2022-08-10T13:04:40.300Z,0.20
2022-08-10T13:07:09.201Z,0.20
2022-08-10T13:09:55.829Z,0.20
2022-08-10T13:12:35.888Z,0.20
2022-08-10T13:15:49.127Z,0.20
2022-08-10T13:18:35.274Z,0.20
2022-08-10T13:21:20.581Z,0.35
2022-08-10T13:24:05.962Z,0.20
2022-08-10T13:27:09.105Z,0.20
2022-08-10T13:29:28.598Z,0.20
2022-08-10T13:32:03.777Z,0.10
2022-08-10T13:34:45.082Z,0.28
2022-08-10T13:37:22.540Z,0.13
2022-08-10T13:39:58.870Z,0.20
2022-08-10T13:42:33.633Z,0.20
2022-08-10T13:45:14.789Z,0.20
2022-08-10T13:47:50.885Z,0.25
2022-08-10T13:50:33.536Z,0.20
2022-08-10T13:53:07.717Z,0.20
2022-08-10T13:55:57.172Z,0.20
2022-08-10T13:58:33.801Z,0.30
2022-08-10T14:01:09.060Z,0.20
2022-08-10T14:03:39.807Z,0.20
2022-08-10T14:06:11.766Z,0.20
2022-08-10T14:08:41.265Z,0.22
2022-08-10T14:11:14.582Z,0.20
2022-08-10T14:14:03.943Z,0.10
2022-08-10T14:16:33.514Z,0.30
2022-08-10T14:19:05.333Z,0.20
2022-08-10T14:21:39.125Z,0.30
2022-08-10T14:24:27.404Z,0.30
2022-08-10T14:26:59.032Z,0.13
2022-08-10T14:29:27.396Z,0.20
2022-08-10T14:32:00.806Z,0.20
2022-08-10T14:36:14.992Z,0.17
2022-08-10T14:37:51.977Z,0.20
2022-08-10T14:40:28.749Z,0.22
2022-08-10T14:43:06.717Z,0.22
2022-08-10T14:45:37.845Z,0.20
2022-08-10T14:48:13.434Z,0.20
2022-08-10T14:50:54.837Z,0.20
2022-08-10T14:53:26.664Z,0.70
2022-08-10T14:56:02.490Z,0.40
2022-08-10T14:58:38.557Z,0.30
2022-08-10T15:01:08.147Z,0.40
2022-08-10T15:03:58.841Z,0.40
2022-08-10T15:06:35.402Z,0.50
2022-08-10T15:09:12.184Z,0.68
2022-08-10T15:12:15.254Z,0.40
2022-08-10T15:14:43.957Z,0.45
2022-08-10T15:17:35.135Z,0.30
2022-08-10T15:20:31.065Z,0.20
2022-08-10T15:23:06.312Z,0.30
2022-08-10T15:25:39.969Z,0.20
2022-08-10T15:29:05.900Z,0.20
2022-08-10T15:31:18.484Z,0.20
2022-08-10T15:34:15.466Z,0.20
2022-08-10T15:37:40.431Z,0.20
2022-08-10T15:40:20.915Z,0.15
2022-08-10T15:42:55.320Z,0.20
2022-08-10T15:45:25.794Z,0.25
2022-08-10T15:48:03.618Z,0.20
2022-08-10T15:50:43.948Z,0.30
2022-08-10T15:53:28.645Z,0.20
2022-08-10T15:56:43.943Z,0.20
2022-08-10T15:59:34.299Z,0.20
2022-08-10T16:02:17.177Z,0.20
2022-08-10T16:05:07.987Z,0.20
2022-08-10T16:07:49.173Z,0.25
2022-08-10T16:10:28.991Z,0.20
2022-08-10T16:13:59.322Z,0.30
2022-08-10T16:16:07.688Z,0.30
2022-08-10T16:18:42.388Z,0.28
2022-08-10T16:21:24.791Z,0.20
2022-08-10T16:24:15.743Z,0.43
2022-08-10T16:30:57.815Z,5.07
2022-08-10T16:33:53.110Z,5.60
2022-08-10T16:37:09.516Z,3.75
2022-08-10T16:39:58.334Z,2.00
2022-08-10T16:42:34.436Z,14.63
2022-08-10T16:45:11.090Z,11.50
2022-08-10T16:47:45.980Z,6.93
2022-08-10T16:50:25.233Z,4.93
2022-08-10T16:52:54.283Z,3.15
2022-08-10T16:55:49.919Z,1.90
2022-08-10T16:58:14.106Z,1.23
2022-08-10T17:00:44.846Z,1.00
2022-08-10T17:06:10.713Z,0.70
2022-08-10T17:08:49.557Z,0.50
2022-08-10T17:11:20.499Z,0.30
2022-08-10T17:13:48.419Z,0.30
2022-08-10T17:16:17.997Z,0.30
2022-08-10T17:18:48.001Z,0.20
2022-08-10T17:21:25.802Z,0.30
2022-08-10T17:23:56.895Z,0.20
2022-08-10T17:26:35.847Z,0.30
2022-08-10T17:29:50.502Z,0.20
2022-08-10T17:32:19.187Z,0.20
2022-08-10T17:34:49.945Z,0.28
2022-08-10T17:37:20.455Z,0.40
2022-08-10T17:39:58.126Z,0.30
2022-08-10T17:42:26.896Z,0.20
2022-08-10T17:44:55.330Z,0.32
2022-08-10T17:47:27.233Z,0.30
2022-08-10T17:50:04.364Z,0.30
2022-08-10T17:52:33.184Z,0.30
2022-08-10T17:55:06.367Z,0.28
2022-08-10T17:57:39.439Z,0.20
2022-08-10T18:00:15.108Z,0.22
2022-08-10T18:02:48.729Z,0.20
2022-08-10T18:05:16.374Z,0.30
2022-08-10T18:07:52.929Z,0.20
2022-08-10T18:10:22.128Z,0.20
2022-08-10T18:12:55.011Z,0.20
2022-08-10T18:15:26.024Z,0.30
2022-08-10T18:18:02.692Z,0.20
2022-08-10T18:20:36.160Z,0.30
2022-08-10T18:23:07.736Z,0.15
2022-08-10T18:28:07.472Z,0.30
2022-08-10T18:30:47.547Z,0.20
2022-08-10T18:33:17.569Z,0.10
2022-08-10T18:35:46.410Z,0.22
2022-08-10T18:38:17.899Z,0.20
2022-08-10T18:40:54.309Z,0.20
2022-08-10T18:44:10.434Z,0.28
2022-08-10T18:46:29.238Z,0.25
2022-08-10T18:49:13.294Z,0.20
2022-08-10T18:51:47.207Z,0.20
2022-08-10T18:54:31.441Z,0.20
2022-08-10T18:57:31.710Z,0.10
2022-08-10T19:00:09.666Z,0.15
2022-08-10T19:03:14.216Z,0.20
2022-08-10T19:06:20.296Z,0.10
2022-08-10T19:09:41.556Z,0.10
2022-08-10T19:12:30.605Z,0.17
2022-08-10T19:15:23.277Z,0.20
2022-08-10T19:18:07.503Z,0.20
2022-08-10T19:21:04.930Z,0.20
2022-08-10T19:23:59.977Z,0.20
2022-08-10T19:26:44.663Z,0.30
2022-08-10T19:30:08.756Z,0.20
2022-08-10T19:32:50.927Z,0.15
2022-08-10T19:36:03.673Z,0.20
2022-08-10T19:38:33.139Z,0.30
2022-08-10T19:41:24.376Z,0.25
2022-08-10T19:44:12.225Z,0.10
2022-08-10T19:46:54.122Z,0.10
2022-08-10T19:49:42.554Z,0.28
2022-08-10T19:52:36.434Z,0.10
2022-08-10T19:55:18.052Z,0.20
2022-08-10T19:58:04.729Z,0.20
2022-08-10T20:00:51.606Z,0.10
2022-08-10T20:03:43.679Z,0.30
2022-08-10T20:06:22.560Z,0.20
2022-08-10T20:09:22.980Z,0.30
2022-08-10T20:12:08.375Z,0.30
2022-08-10T20:15:03.295Z,0.15
2022-08-10T20:17:44.991Z,0.20
2022-08-10T20:20:34.611Z,0.20
2022-08-10T20:23:21.171Z,0.30
2022-08-10T20:26:12.408Z,0.20
2022-08-10T20:28:49.356Z,0.20
2022-08-10T20:31:39.000Z,0.20
2022-08-10T20:34:16.944Z,0.15
2022-08-10T20:37:01.182Z,0.20
2022-08-10T20:39:41.894Z,0.15
2022-08-10T20:42:33.669Z,0.20
2022-08-10T20:45:04.126Z,0.30
2022-08-10T20:48:11.763Z,0.30
2022-08-10T20:50:50.021Z,0.30
2022-08-10T20:53:19.773Z,0.32
2022-08-10T20:56:01.779Z,0.30
2022-08-10T20:59:09.247Z,0.40
2022-08-10T21:02:06.869Z,0.30
2022-08-10T21:04:55.931Z,0.20
2022-08-10T21:08:05.229Z,0.30
2022-08-10T21:10:49.355Z,0.15
2022-08-10T21:13:52.365Z,0.20
2022-08-10T21:16:40.563Z,0.20
2022-08-10T21:19:52.167Z,0.35
2022-08-10T21:22:35.114Z,0.20
2022-08-10T21:25:08.508Z,0.20
2022-08-10T21:27:55.373Z,0.30
2022-08-10T21:31:10.134Z,0.30
2022-08-10T21:33:45.610Z,0.32
2022-08-10T21:36:26.841Z,0.20
2022-08-10T21:39:03.671Z,0.20
2022-08-10T21:42:04.462Z,0.25
2022-08-10T21:45:04.102Z,0.68
2022-08-10T21:48:17.284Z,0.40
2022-08-10T21:51:24.177Z,0.20
2022-08-10T21:54:22.681Z,0.20
2022-08-10T21:57:20.501Z,0.20
2022-08-10T22:00:26.392Z,0.30
2022-08-10T22:03:18.911Z,0.32
2022-08-10T22:06:09.807Z,0.30
2022-08-10T22:09:14.773Z,0.20
2022-08-10T22:12:08.960Z,0.30
2022-08-10T22:15:11.405Z,0.32
2022-08-10T22:18:05.087Z,0.22
2022-08-10T22:20:54.805Z,0.30
2022-08-10T22:23:40.909Z,0.28
2022-08-10T22:26:56.644Z,0.30
2022-08-10T22:30:22.594Z,0.30
2022-08-10T22:33:47.510Z,0.33
2022-08-10T22:37:00.899Z,0.30
2022-08-10T22:40:14.421Z,0.40
2022-08-10T22:43:10.471Z,0.30
2022-08-10T22:46:03.389Z,0.30
2022-08-10T22:48:50.311Z,0.20
2022-08-10T22:51:22.778Z,0.30
2022-08-10T22:54:31.526Z,0.22
2022-08-10T22:57:21.624Z,0.30
2022-08-10T22:59:50.329Z,0.40
2022-08-10T23:02:33.755Z,0.22
2022-08-10T23:05:16.622Z,0.30
2022-08-10T23:07:55.220Z,0.25
2022-08-10T23:10:29.109Z,0.30
2022-08-10T23:13:14.216Z,0.40
2022-08-10T23:16:22.699Z,0.20
2022-08-10T23:19:11.388Z,0.30
2022-08-10T23:22:04.688Z,0.20
2022-08-10T23:24:38.842Z,0.30
2022-08-10T23:27:12.424Z,0.35
2022-08-10T23:30:03.631Z,0.40
2022-08-10T23:32:41.727Z,0.40
2022-08-10T23:36:04.436Z,0.40
2022-08-10T23:38:10.743Z,0.30
2022-08-10T23:40:43.356Z,0.30
2022-08-10T23:43:18.999Z,0.38
2022-08-10T23:45:54.404Z,0.30
2022-08-10T23:48:27.519Z,0.60
2022-08-10T23:50:59.870Z,0.30
2022-08-10T23:53:30.222Z,0.30
2022-08-10T23:56:08.875Z,0.40
2022-08-10T23:58:48.297Z,0.30
